createdAt,value
2018-02-21T00:01:09.600Z,66.10
2018-02-21T00:03:43.268Z,66.10
2018-02-21T00:06:18.027Z,66.40
2018-02-21T00:08:52.600Z,66.30
2018-02-21T00:11:26.371Z,65.90
2018-02-21T00:14:00.980Z,66.50
2018-02-21T00:16:34.963Z,66.10
2018-02-21T00:19:08.768Z,66.20
2018-02-21T00:21:42.936Z,66.40
2018-02-21T00:24:16.967Z,66.40
2018-02-21T00:26:51.022Z,66.50
2018-02-21T00:29:25.168Z,66.70
2018-02-21T00:31:59.207Z,66.80
2018-02-21T00:34:33.268Z,66.60
2018-02-21T00:37:07.781Z,66.60
2018-02-21T00:39:41.809Z,67.10
2018-02-21T00:42:16.028Z,67.10
2018-02-21T00:44:49.792Z,66.90
2018-02-21T00:47:24.044Z,66.80
2018-02-21T00:49:58.935Z,67.30
2018-02-21T00:52:33.383Z,67.30
2018-02-21T00:55:08.204Z,67.30
2018-02-21T00:57:42.815Z,66.70
2018-02-21T01:00:17.366Z,67.20
2018-02-21T01:02:52.215Z,67.80
2018-02-21T01:05:26.490Z,66.90
2018-02-21T01:08:01.164Z,67.40
2018-02-21T01:10:34.702Z,66.80
2018-02-21T01:13:08.344Z,66.90
2018-02-21T01:15:42.043Z,67.10
2018-02-21T01:18:16.872Z,67.50
2018-02-21T01:20:51.238Z,67.10
2018-02-21T01:23:25.231Z,67.00
2018-02-21T01:25:59.084Z,67.60
2018-02-21T01:28:32.890Z,67.60
2018-02-21T01:31:06.855Z,67.60
2018-02-21T01:33:41.423Z,68.30
2018-02-21T01:36:15.550Z,67.80
2018-02-21T01:38:49.412Z,67.70
2018-02-21T01:41:23.170Z,67.70
2018-02-21T01:43:57.800Z,68.30
2018-02-21T01:46:31.937Z,68.30
2018-02-21T01:49:06.721Z,68.60
2018-02-21T01:51:41.064Z,68.20
2018-02-21T01:54:14.903Z,68.20
2018-02-21T01:56:49.181Z,68.30
2018-02-21T01:59:23.491Z,68.40
2018-02-21T02:01:57.398Z,68.60
2018-02-21T02:04:31.712Z,69.20
2018-02-21T02:07:06.047Z,68.80
2018-02-21T02:09:40.040Z,68.80
2018-02-21T02:12:14.113Z,68.80
2018-02-21T02:14:47.928Z,68.80
2018-02-21T02:17:22.110Z,68.90
2018-02-21T02:19:56.175Z,69.00
2018-02-21T02:22:30.038Z,68.90
2018-02-21T02:25:04.351Z,69.20
2018-02-21T02:27:39.123Z,69.70
2018-02-21T02:30:13.380Z,69.40
2018-02-21T02:32:48.331Z,70.00
2018-02-21T02:35:22.737Z,69.70
2018-02-21T02:37:56.503Z,69.90
2018-02-21T02:40:31.019Z,71.10
2018-02-21T02:43:05.992Z,70.70
2018-02-21T02:45:40.013Z,70.50
2018-02-21T02:48:13.714Z,70.90
2018-02-21T02:50:47.926Z,70.50
2018-02-21T02:53:22.637Z,71.00
2018-02-21T02:55:56.846Z,70.60
2018-02-21T02:58:30.632Z,70.40
2018-02-21T03:01:05.191Z,70.40
2018-02-21T03:03:39.366Z,70.30
2018-02-21T03:06:13.216Z,71.90
2018-02-21T03:08:47.211Z,70.30
2018-02-21T03:11:21.296Z,70.10
2018-02-21T03:13:55.435Z,70.20
2018-02-21T03:16:29.963Z,70.20
2018-02-21T03:19:04.054Z,70.70
2018-02-21T03:21:38.334Z,70.10
2018-02-21T03:24:12.340Z,70.20
2018-02-21T03:26:46.587Z,70.10
2018-02-21T03:29:20.584Z,70.20
2018-02-21T03:31:54.539Z,70.30
2018-02-21T03:34:28.807Z,70.30
2018-02-21T03:37:02.477Z,70.20
2018-02-21T03:39:36.540Z,70.70
2018-02-21T03:42:10.675Z,70.40
2018-02-21T03:44:45.004Z,73.50
2018-02-21T03:47:19.260Z,70.40
2018-02-21T03:49:54.195Z,70.30
2018-02-21T03:52:28.428Z,70.10
2018-02-21T03:55:02.983Z,70.60
2018-02-21T03:57:36.990Z,70.00
2018-02-21T04:00:10.827Z,69.90
2018-02-21T04:02:44.691Z,69.90
2018-02-21T04:05:19.224Z,70.60
2018-02-21T04:07:53.472Z,70.40
2018-02-21T04:10:28.171Z,70.80
2018-02-21T04:13:02.507Z,70.10
2018-02-21T04:15:36.280Z,70.10
2018-02-21T04:18:11.011Z,71.20
2018-02-21T04:20:45.456Z,70.40
2018-02-21T04:23:19.558Z,74.40
2018-02-21T04:25:53.572Z,70.30
2018-02-21T04:28:28.492Z,70.80
2018-02-21T04:31:03.417Z,70.80
2018-02-21T04:33:37.933Z,70.40
2018-02-21T04:36:12.609Z,70.30
2018-02-21T04:38:46.456Z,70.40
2018-02-21T04:41:20.954Z,70.60
2018-02-21T04:43:56.158Z,70.90
2018-02-21T04:46:30.462Z,70.40
2018-02-21T04:49:05.367Z,71.00
2018-02-21T04:51:39.168Z,70.30
2018-02-21T04:57:16.715Z,70.20
2018-02-21T04:59:56.689Z,71.00
2018-02-21T05:02:31.606Z,71.20
2018-02-21T05:05:05.900Z,70.70
2018-02-21T05:07:40.275Z,70.70
2018-02-21T05:10:13.941Z,70.80
2018-02-21T05:12:47.777Z,70.80
2018-02-21T05:15:21.555Z,70.80
2018-02-21T05:17:56.099Z,70.90
2018-02-21T05:20:30.329Z,71.10
2018-02-21T05:23:04.864Z,71.10
2018-02-21T05:25:38.585Z,71.20
2018-02-21T05:28:12.246Z,71.40
2018-02-21T05:30:46.229Z,71.40
2018-02-21T05:33:20.577Z,71.30
2018-02-21T05:35:54.238Z,74.20
2018-02-21T05:38:28.068Z,71.50
2018-02-21T05:41:01.653Z,71.60
2018-02-21T05:43:35.415Z,71.50
2018-02-21T05:46:09.950Z,72.00
2018-02-21T05:48:43.708Z,71.50
2018-02-21T05:51:17.599Z,71.70
2018-02-21T05:53:52.259Z,72.30
2018-02-21T05:56:26.151Z,71.40
2018-02-21T05:59:00.750Z,71.90
2018-02-21T06:01:35.139Z,71.90
2018-02-21T06:04:09.357Z,71.50
2018-02-21T06:06:43.832Z,71.80
2018-02-21T06:09:17.544Z,71.80
2018-02-21T06:11:52.208Z,71.70
2018-02-21T06:14:26.869Z,71.60
2018-02-21T06:17:00.846Z,71.40
2018-02-21T06:19:34.501Z,71.40
2018-02-21T06:22:09.060Z,72.10
2018-02-21T06:24:43.025Z,71.50
2018-02-21T06:27:16.730Z,71.50
2018-02-21T06:29:50.444Z,71.40
2018-02-21T06:32:24.442Z,71.20
2018-02-21T06:34:59.558Z,71.80
2018-02-21T06:37:33.800Z,71.60
2018-02-21T06:40:08.225Z,70.60
2018-02-21T06:42:42.799Z,71.10
2018-02-21T06:45:16.858Z,70.70
2018-02-21T06:47:50.564Z,70.60
2018-02-21T06:50:24.412Z,70.50
2018-02-21T06:52:58.367Z,70.60
2018-02-21T06:55:31.972Z,70.40
2018-02-21T06:58:06.018Z,72.30
2018-02-21T07:00:40.227Z,69.90
2018-02-21T07:03:13.941Z,69.70
2018-02-21T07:05:47.681Z,70.00
2018-02-21T07:08:21.335Z,69.60
2018-02-21T07:10:55.708Z,69.50
2018-02-21T07:13:29.633Z,69.70
2018-02-21T07:16:03.407Z,69.50
2018-02-21T07:18:37.121Z,69.30
2018-02-21T07:21:10.872Z,69.00
2018-02-21T07:23:45.351Z,69.40
2018-02-21T07:26:19.199Z,68.20
2018-02-21T07:28:53.772Z,67.90
2018-02-21T07:31:27.456Z,66.50
2018-02-21T07:34:01.108Z,67.00
2018-02-21T07:36:34.785Z,65.90
2018-02-21T07:39:08.579Z,64.40
2018-02-21T07:41:42.212Z,64.90
2018-02-21T07:44:15.866Z,63.90
2018-02-21T07:46:49.474Z,62.30
2018-02-21T07:49:24.707Z,57.00
2018-02-21T07:51:58.624Z,56.90
2018-02-21T07:54:32.412Z,55.10
2018-02-21T07:57:06.180Z,55.20
2018-02-21T07:59:40.256Z,54.60
2018-02-21T08:02:14.777Z,52.30
2018-02-21T08:04:49.077Z,52.20
2018-02-21T08:07:24.127Z,51.20
2018-02-21T08:09:58.095Z,51.20
2018-02-21T08:12:31.813Z,50.30
2018-02-21T08:15:05.641Z,50.80
2018-02-21T08:17:40.603Z,53.80
2018-02-21T08:20:14.741Z,53.80
2018-02-21T08:22:49.225Z,51.20
2018-02-21T08:25:23.488Z,50.60
2018-02-21T08:27:57.216Z,47.30
2018-02-21T08:30:30.977Z,45.00
2018-02-21T08:33:04.598Z,43.60
2018-02-21T08:35:38.410Z,42.20
2018-02-21T08:38:12.180Z,42.50
2018-02-21T08:40:45.871Z,42.50
2018-02-21T08:43:20.240Z,42.00
2018-02-21T08:45:54.171Z,42.50
2018-02-21T08:48:27.788Z,39.20
2018-02-21T08:51:01.453Z,35.70
2018-02-21T08:53:35.352Z,33.50
2018-02-21T08:56:09.203Z,32.00
2018-02-21T08:58:42.988Z,30.20
2018-02-21T09:01:16.897Z,30.20
2018-02-21T09:03:50.560Z,30.00
2018-02-21T09:06:25.146Z,28.00
2018-02-21T09:08:58.971Z,27.90
2018-02-21T09:11:32.836Z,26.70
2018-02-21T09:14:06.415Z,24.40
2018-02-21T09:16:40.393Z,23.00
2018-02-21T09:19:14.112Z,21.40
2018-02-21T09:21:48.259Z,21.20
2018-02-21T09:24:22.102Z,20.20
2018-02-21T09:26:56.612Z,18.90
2018-02-21T09:29:30.739Z,18.80
2018-02-21T09:32:04.869Z,18.70
2018-02-21T09:34:38.640Z,19.40
2018-02-21T09:37:12.532Z,19.50
2018-02-21T09:39:46.980Z,19.00
2018-02-21T09:42:20.959Z,19.00
2018-02-21T09:44:55.500Z,17.90
2018-02-21T09:47:29.397Z,17.80
2018-02-21T09:50:03.925Z,17.20
2018-02-21T09:52:38.449Z,17.40
2018-02-21T09:55:12.240Z,16.80
2018-02-21T09:57:46.788Z,16.80
2018-02-21T10:00:20.662Z,16.80
2018-02-21T10:02:55.112Z,19.00
2018-02-21T10:05:29.001Z,18.60
2018-02-21T10:08:02.918Z,20.10
2018-02-21T10:10:36.586Z,20.20
2018-02-21T10:13:11.067Z,20.80
2018-02-21T10:15:45.030Z,20.70
2018-02-21T10:18:18.628Z,21.70
2018-02-21T10:20:52.459Z,22.40
2018-02-21T10:23:26.909Z,22.60
2018-02-21T10:26:00.935Z,22.50
2018-02-21T10:28:35.522Z,20.80
2018-02-21T10:31:09.549Z,20.80
2018-02-21T10:33:43.320Z,20.00
2018-02-21T10:36:16.995Z,20.00
2018-02-21T10:38:50.875Z,19.20
2018-02-21T10:41:25.494Z,18.70
2018-02-21T10:43:59.671Z,18.70
2018-02-21T10:46:33.719Z,18.90
2018-02-21T10:49:07.624Z,19.00
2018-02-21T10:51:41.501Z,19.10
2018-02-21T10:54:15.331Z,19.90
2018-02-21T10:56:49.115Z,19.70
2018-02-21T10:59:23.646Z,20.90
2018-02-21T11:01:57.796Z,20.90
2018-02-21T11:04:31.526Z,21.20
2018-02-21T11:07:05.310Z,20.70
2018-02-21T11:09:39.099Z,20.50
2018-02-21T11:12:13.724Z,20.40
2018-02-21T11:14:47.562Z,19.90
2018-02-21T11:17:21.333Z,20.20
2018-02-21T11:19:55.101Z,19.90
2018-02-21T11:22:28.919Z,19.70
2018-02-21T11:25:02.589Z,19.90
2018-02-21T11:27:36.450Z,20.30
2018-02-21T11:30:10.272Z,20.50
2018-02-21T11:32:44.202Z,20.80
2018-02-21T11:35:18.852Z,20.80
2018-02-21T11:37:52.915Z,20.80
2018-02-21T11:40:26.596Z,20.60
2018-02-21T11:43:01.136Z,20.00
2018-02-21T11:45:35.347Z,20.00
2018-02-21T11:48:09.062Z,20.10
2018-02-21T11:50:42.960Z,20.50
2018-02-21T11:53:16.732Z,20.60
2018-02-21T11:55:51.445Z,21.40
2018-02-21T11:58:25.341Z,21.30
2018-02-21T12:00:59.016Z,20.30
2018-02-21T12:03:32.859Z,21.40
2018-02-21T12:06:06.738Z,21.90
2018-02-21T12:08:40.259Z,21.90
2018-02-21T12:11:13.934Z,21.30
2018-02-21T12:13:48.405Z,22.70
2018-02-21T12:16:24.254Z,22.60
2018-02-21T12:18:58.036Z,22.60
2018-02-21T12:21:32.663Z,23.40
2018-02-21T12:24:06.446Z,23.00
2018-02-21T12:26:40.265Z,22.80
2018-02-21T12:29:14.946Z,24.90
2018-02-21T12:31:50.118Z,24.30
2018-02-21T12:34:24.490Z,24.30
2018-02-21T12:36:58.073Z,23.80
2018-02-21T12:39:33.636Z,24.20
2018-02-21T12:42:07.556Z,24.30
2018-02-21T12:44:41.380Z,24.10
2018-02-21T12:47:15.171Z,24.70
2018-02-21T12:49:49.045Z,25.00
2018-02-21T12:52:23.493Z,25.40
2018-02-21T12:54:57.763Z,25.40
2018-02-21T12:57:31.487Z,25.50
2018-02-21T13:00:05.110Z,25.00
2018-02-21T13:02:39.128Z,25.50
2018-02-21T13:05:13.622Z,27.80
2018-02-21T13:07:47.724Z,27.70
2018-02-21T13:10:22.505Z,27.80
2018-02-21T13:12:56.413Z,27.70
2018-02-21T13:15:31.203Z,27.70
2018-02-21T13:18:06.035Z,27.40
2018-02-21T13:20:39.959Z,27.30
2018-02-21T13:23:13.598Z,27.20
2018-02-21T13:25:47.352Z,27.30
2018-02-21T13:28:21.076Z,27.70
2018-02-21T13:30:54.652Z,28.30
2018-02-21T13:33:29.089Z,28.10
2018-02-21T13:36:03.092Z,27.70
2018-02-21T13:38:37.511Z,28.00
2018-02-21T13:41:11.404Z,28.00
2018-02-21T13:43:45.862Z,27.70
2018-02-21T13:46:19.888Z,27.60
2018-02-21T13:48:53.744Z,28.20
2018-02-21T13:51:27.430Z,28.10
2018-02-21T13:54:01.176Z,28.40
2018-02-21T13:56:34.986Z,28.10
2018-02-21T13:59:09.056Z,28.30
2018-02-21T14:01:43.468Z,28.20
2018-02-21T14:04:18.135Z,29.30
2018-02-21T14:06:52.143Z,29.30
2018-02-21T14:09:26.273Z,29.20
2018-02-21T14:12:00.872Z,29.50
2018-02-21T14:14:34.740Z,30.00
2018-02-21T14:17:08.474Z,31.20
2018-02-21T14:19:42.172Z,32.00
2018-02-21T14:22:16.705Z,32.90
2018-02-21T14:24:50.458Z,32.80
2018-02-21T14:27:24.075Z,32.40
2018-02-21T14:29:57.763Z,33.00
2018-02-21T14:32:32.700Z,32.90
2018-02-21T14:35:06.299Z,33.50
2018-02-21T14:37:39.970Z,34.10
2018-02-21T14:40:13.811Z,34.10
2018-02-21T14:42:47.546Z,33.70
2018-02-21T14:45:22.060Z,33.30
2018-02-21T14:47:56.077Z,33.60
2018-02-21T14:50:29.915Z,34.00
2018-02-21T14:53:03.590Z,34.20
2018-02-21T14:55:37.172Z,34.20
2018-02-21T14:58:10.914Z,34.50
2018-02-21T15:00:45.892Z,34.00
2018-02-21T15:03:19.502Z,34.40
2018-02-21T15:05:53.337Z,34.40
2018-02-21T15:08:26.951Z,35.30
2018-02-21T15:11:00.697Z,35.60
2018-02-21T15:13:34.302Z,35.60
2018-02-21T15:16:09.071Z,36.50
2018-02-21T15:18:43.494Z,36.40
2018-02-21T15:21:18.318Z,36.20
2018-02-21T15:23:52.171Z,33.10
2018-02-21T15:26:26.972Z,36.30
2018-02-21T15:29:01.097Z,35.80
2018-02-21T15:31:35.599Z,37.00
2018-02-21T15:34:09.622Z,36.70
2018-02-21T15:36:43.607Z,37.10
2018-02-21T15:39:17.458Z,36.80
2018-02-21T15:41:52.244Z,37.30
2018-02-21T15:44:26.433Z,36.70
2018-02-21T15:47:00.139Z,36.80
2018-02-21T15:49:33.985Z,37.40
2018-02-21T15:52:07.762Z,37.10
2018-02-21T15:54:41.497Z,37.40
2018-02-21T15:57:15.239Z,37.40
2018-02-21T15:59:49.711Z,37.50
2018-02-21T16:02:23.638Z,37.20
2018-02-21T16:04:57.206Z,37.90
2018-02-21T16:07:30.880Z,38.30
2018-02-21T16:10:04.559Z,37.50
2018-02-21T16:12:38.327Z,36.50
2018-02-21T16:15:11.995Z,36.50
2018-02-21T16:17:45.878Z,37.70
2018-02-21T16:20:19.583Z,38.00
2018-02-21T16:22:53.339Z,38.20
2018-02-21T16:25:27.057Z,38.60
2018-02-21T16:28:00.823Z,36.30
2018-02-21T16:30:34.613Z,39.10
2018-02-21T16:33:09.172Z,39.30
2018-02-21T16:35:43.388Z,39.20
2018-02-21T16:38:17.004Z,39.00
2018-02-21T16:40:50.882Z,39.30
2018-02-21T16:43:25.427Z,40.20
2018-02-21T16:45:59.376Z,39.60
2018-02-21T16:48:33.191Z,39.90
2018-02-21T16:51:07.800Z,40.60
2018-02-21T16:53:42.719Z,40.40
2018-02-21T16:56:16.638Z,39.90
2018-02-21T16:58:51.739Z,41.20
2018-02-21T17:01:25.747Z,40.50
2018-02-21T17:03:59.545Z,40.50
2018-02-21T17:06:33.397Z,40.60
2018-02-21T17:09:07.245Z,40.40
2018-02-21T17:11:41.080Z,40.70
2018-02-21T17:14:14.723Z,40.70
2018-02-21T17:16:48.271Z,40.40
2018-02-21T17:19:22.124Z,40.00
2018-02-21T17:21:55.847Z,40.70
2018-02-21T17:27:09.590Z,40.80
2018-02-21T17:29:44.363Z,41.00
2018-02-21T17:32:19.016Z,40.70
2018-02-21T17:34:52.998Z,40.20
2018-02-21T17:37:26.759Z,40.80
2018-02-21T17:40:00.335Z,40.50
2018-02-21T17:42:34.004Z,40.60
2018-02-21T17:45:08.543Z,40.90
2018-02-21T17:47:42.348Z,40.80
2018-02-21T17:50:16.782Z,40.80
2018-02-21T17:52:50.672Z,40.80
2018-02-21T17:55:24.451Z,41.20
2018-02-21T17:57:58.214Z,41.30
2018-02-21T18:00:32.896Z,42.00
2018-02-21T18:03:06.732Z,42.00
2018-02-21T18:05:40.632Z,42.10
2018-02-21T18:08:14.266Z,41.60
2018-02-21T18:10:48.099Z,41.50
2018-02-21T18:13:22.463Z,41.90
2018-02-21T18:15:57.179Z,42.40
2018-02-21T18:18:31.022Z,42.40
2018-02-21T18:21:05.510Z,42.90
2018-02-21T18:23:39.444Z,42.40
2018-02-21T18:26:13.212Z,42.80
2018-02-21T18:28:47.534Z,42.40
2018-02-21T18:31:21.563Z,42.40
2018-02-21T18:33:55.359Z,42.10
2018-02-21T18:36:29.891Z,43.20
2018-02-21T18:39:04.039Z,42.70
2018-02-21T18:41:37.836Z,43.00
2018-02-21T18:44:11.628Z,43.00
2018-02-21T18:46:46.229Z,43.40
2018-02-21T18:49:20.407Z,42.90
2018-02-21T18:51:55.158Z,43.50
2018-02-21T18:54:29.067Z,43.10
2018-02-21T18:57:02.799Z,43.10
2018-02-21T18:59:37.224Z,43.90
2018-02-21T19:02:11.804Z,44.10
2018-02-21T19:04:45.886Z,43.80
2018-02-21T19:07:19.998Z,44.30
2018-02-21T19:09:53.664Z,44.10
2018-02-21T19:12:28.471Z,44.70
2018-02-21T19:15:03.116Z,44.80
2018-02-21T19:17:37.813Z,44.40
2018-02-21T19:20:12.467Z,44.90
2018-02-21T19:22:46.491Z,44.40
2018-02-21T19:25:20.283Z,44.80
2018-02-21T19:27:54.708Z,44.90
2018-02-21T19:30:28.593Z,44.50
2018-02-21T19:33:02.288Z,45.00
2018-02-21T19:35:36.916Z,45.10
2018-02-21T19:38:10.508Z,44.60
2018-02-21T19:40:45.287Z,45.00
2018-02-21T19:43:18.908Z,44.50
2018-02-21T19:45:53.767Z,44.60
2018-02-21T19:48:28.414Z,45.10
2018-02-21T19:51:02.036Z,44.70
2018-02-21T19:53:35.854Z,44.80
2018-02-21T19:56:09.535Z,45.30
2018-02-21T19:58:43.424Z,45.10
2018-02-21T20:01:18.053Z,46.10
2018-02-21T20:03:52.530Z,46.20
2018-02-21T20:06:26.580Z,45.90
2018-02-21T20:09:01.071Z,46.80
2018-02-21T20:11:35.736Z,47.10
2018-02-21T20:14:09.596Z,47.00
2018-02-21T20:16:43.296Z,47.30
2018-02-21T20:19:17.117Z,47.60
2018-02-21T20:21:50.833Z,47.90
2018-02-21T20:24:24.633Z,47.80
2018-02-21T20:26:58.249Z,47.80
2018-02-21T20:29:31.911Z,48.40
2018-02-21T20:32:05.552Z,48.90
2018-02-21T20:34:40.032Z,49.60
2018-02-21T20:37:13.757Z,49.10
2018-02-21T20:39:47.395Z,49.70
2018-02-21T20:42:21.132Z,50.20
2018-02-21T20:44:54.858Z,50.50
2018-02-21T20:47:29.419Z,51.00
2018-02-21T20:50:03.231Z,50.80
2018-02-21T20:52:37.795Z,51.40
2018-02-21T20:55:11.553Z,51.40
2018-02-21T20:57:45.169Z,51.60
2018-02-21T21:00:19.029Z,51.70
2018-02-21T21:02:52.587Z,51.90
2018-02-21T21:05:26.404Z,52.20
2018-02-21T21:08:00.068Z,52.30
2018-02-21T21:10:34.708Z,52.60
2018-02-21T21:13:08.732Z,52.50
2018-02-21T21:15:42.465Z,52.60
2018-02-21T21:18:16.147Z,52.80
2018-02-21T21:20:49.916Z,52.90
2018-02-21T21:23:23.447Z,53.30
2018-02-21T21:25:57.236Z,53.50
2018-02-21T21:28:30.996Z,53.70
2018-02-21T21:31:04.615Z,53.90
2018-02-21T21:33:38.675Z,54.10
2018-02-21T21:36:14.212Z,54.60
2018-02-21T21:38:49.005Z,54.50
2018-02-21T21:41:22.659Z,54.80
2018-02-21T21:43:56.441Z,54.30
2018-02-21T21:46:30.868Z,55.30
2018-02-21T21:49:04.757Z,55.20
2018-02-21T21:51:39.073Z,55.50
2018-02-21T21:54:13.043Z,55.40
2018-02-21T21:56:47.630Z,55.60
2018-02-21T21:59:21.457Z,55.40
2018-02-21T22:01:55.238Z,55.20
2018-02-21T22:04:29.013Z,55.40
2018-02-21T22:07:03.547Z,56.00
2018-02-21T22:09:37.332Z,56.00
2018-02-21T22:12:10.910Z,56.00
2018-02-21T22:14:45.302Z,56.20
2018-02-21T22:17:19.274Z,55.90
2018-02-21T22:19:52.902Z,56.00
2018-02-21T22:22:26.773Z,56.20
2018-02-21T22:25:00.324Z,56.30
2018-02-21T22:27:34.844Z,56.20
2018-02-21T22:30:08.978Z,56.30
2018-02-21T22:32:43.576Z,56.40
2018-02-21T22:35:17.507Z,56.30
2018-02-21T22:37:51.923Z,56.30
2018-02-21T22:40:25.932Z,56.30
2018-02-21T22:42:59.736Z,56.40
2018-02-21T22:45:33.572Z,56.40
2018-02-21T22:48:07.421Z,56.40
2018-02-21T22:50:41.142Z,56.40
2018-02-21T22:53:14.882Z,56.50
2018-02-21T22:55:49.443Z,57.40
2018-02-21T22:58:23.480Z,56.80
2018-02-21T23:00:57.156Z,57.00
2018-02-21T23:03:30.880Z,57.20
2018-02-21T23:06:04.464Z,57.20
2018-02-21T23:08:37.966Z,57.40
2018-02-21T23:11:12.525Z,57.50
2018-02-21T23:13:47.182Z,57.60
2018-02-21T23:16:21.210Z,57.50
2018-02-21T23:18:55.021Z,57.80
2018-02-21T23:21:28.682Z,57.70
2018-02-21T23:24:02.286Z,57.70
2018-02-21T23:26:35.943Z,57.70
2018-02-21T23:29:09.540Z,57.70
2018-02-21T23:31:43.203Z,57.80
2018-02-21T23:34:16.781Z,57.90
2018-02-21T23:36:50.475Z,58.10
2018-02-21T23:39:24.176Z,58.10
2018-02-21T23:41:58.307Z,58.00
2018-02-21T23:44:32.599Z,58.10
2018-02-21T23:47:06.333Z,58.20
2018-02-21T23:49:39.955Z,58.40
2018-02-21T23:52:13.627Z,58.60
2018-02-21T23:54:47.319Z,58.70
2018-02-21T23:57:21.110Z,58.80
2018-02-21T23:59:54.806Z,59.00
